sensor_id;sensor_type;location;lat;lon;timestamp;temperature;humidity
17236;DHT22;8734;59.272;17.780;2022-10-16T00:01:08;12.90;99.90
17236;DHT22;8734;59.272;17.780;2022-10-16T00:03:38;12.90;99.90
17236;DHT22;8734;59.272;17.780;2022-10-16T00:06:07;12.90;99.90
17236;DHT22;8734;59.272;17.780;2022-10-16T00:08:37;12.90;99.90
17236;DHT22;8734;59.272;17.780;2022-10-16T00:11:09;12.90;99.90
17236;DHT22;8734;59.272;17.780;2022-10-16T00:13:40;12.80;99.90
17236;DHT22;8734;59.272;17.780;2022-10-16T00:16:10;12.80;99.90
17236;DHT22;8734;59.272;17.780;2022-10-16T00:18:39;12.80;99.90
17236;DHT22;8734;59.272;17.780;2022-10-16T00:21:08;12.80;99.90
17236;DHT22;8734;59.272;17.780;2022-10-16T00:23:39;12.70;99.90
17236;DHT22;8734;59.272;17.780;2022-10-16T00:26:09;12.70;99.90
17236;DHT22;8734;59.272;17.780;2022-10-16T00:28:37;12.70;99.90
17236;DHT22;8734;59.272;17.780;2022-10-16T00:31:08;12.70;99.90
17236;DHT22;8734;59.272;17.780;2022-10-16T00:33:38;12.70;99.90
17236;DHT22;8734;59.272;17.780;2022-10-16T00:36:08;12.60;99.90
17236;DHT22;8734;59.272;17.780;2022-10-16T00:38:39;12.60;99.90
17236;DHT22;8734;59.272;17.780;2022-10-16T00:41:10;12.60;99.90
17236;DHT22;8734;59.272;17.780;2022-10-16T00:43:41;12.60;99.90
17236;DHT22;8734;59.272;17.780;2022-10-16T00:46:15;12.60;99.90
17236;DHT22;8734;59.272;17.780;2022-10-16T00:48:48;12.60;99.90
17236;DHT22;8734;59.272;17.780;2022-10-16T00:51:18;12.50;99.90
17236;DHT22;8734;59.272;17.780;2022-10-16T00:53:49;12.50;99.90
17236;DHT22;8734;59.272;17.780;2022-10-16T00:56:18;12.50;99.90
17236;DHT22;8734;59.272;17.780;2022-10-16T00:58:46;12.50;99.90
17236;DHT22;8734;59.272;17.780;2022-10-16T01:01:15;12.50;99.90
17236;DHT22;8734;59.272;17.780;2022-10-16T01:03:43;12.60;99.90
17236;DHT22;8734;59.272;17.780;2022-10-16T01:06:24;12.50;99.90
17236;DHT22;8734;59.272;17.780;2022-10-16T01:09:11;12.50;99.90
17236;DHT22;8734;59.272;17.780;2022-10-16T01:11:50;12.60;99.90
17236;DHT22;8734;59.272;17.780;2022-10-16T01:14:26;12.60;99.90
17236;DHT22;8734;59.272;17.780;2022-10-16T01:17:00;12.60;99.90
17236;DHT22;8734;59.272;17.780;2022-10-16T01:19:58;12.60;99.90
17236;DHT22;8734;59.272;17.780;2022-10-16T01:22:36;12.60;99.90
17236;DHT22;8734;59.272;17.780;2022-10-16T01:25:14;12.70;99.90
17236;DHT22;8734;59.272;17.780;2022-10-16T01:27:46;12.70;99.90
17236;DHT22;8734;59.272;17.780;2022-10-16T01:30:18;12.80;99.90
17236;DHT22;8734;59.272;17.780;2022-10-16T01:32:51;12.80;99.90
17236;DHT22;8734;59.272;17.780;2022-10-16T01:35:23;12.80;99.90
17236;DHT22;8734;59.272;17.780;2022-10-16T01:37:55;12.80;99.90
17236;DHT22;8734;59.272;17.780;2022-10-16T01:40:26;12.80;99.90
17236;DHT22;8734;59.272;17.780;2022-10-16T01:43:00;12.80;99.90
17236;DHT22;8734;59.272;17.780;2022-10-16T01:45:31;12.80;99.90
17236;DHT22;8734;59.272;17.780;2022-10-16T01:48:02;12.80;99.90
17236;DHT22;8734;59.272;17.780;2022-10-16T01:50:37;12.80;99.90
17236;DHT22;8734;59.272;17.780;2022-10-16T01:53:08;12.90;99.90
17236;DHT22;8734;59.272;17.780;2022-10-16T01:55:41;12.80;99.90
17236;DHT22;8734;59.272;17.780;2022-10-16T01:58:14;12.80;99.90
17236;DHT22;8734;59.272;17.780;2022-10-16T02:00:44;12.80;99.90
17236;DHT22;8734;59.272;17.780;2022-10-16T02:03:16;12.90;99.90
17236;DHT22;8734;59.272;17.780;2022-10-16T02:05:47;12.80;99.90
17236;DHT22;8734;59.272;17.780;2022-10-16T02:08:18;12.90;99.90
17236;DHT22;8734;59.272;17.780;2022-10-16T02:10:47;12.80;99.90
17236;DHT22;8734;59.272;17.780;2022-10-16T02:13:22;12.90;99.90
17236;DHT22;8734;59.272;17.780;2022-10-16T02:15:52;12.90;99.90
17236;DHT22;8734;59.272;17.780;2022-10-16T02:18:21;12.90;99.90
17236;DHT22;8734;59.272;17.780;2022-10-16T02:20:53;12.90;99.90
17236;DHT22;8734;59.272;17.780;2022-10-16T02:23:30;12.90;99.90
17236;DHT22;8734;59.272;17.780;2022-10-16T02:26:06;12.90;99.90
17236;DHT22;8734;59.272;17.780;2022-10-16T02:28:40;12.90;99.90
17236;DHT22;8734;59.272;17.780;2022-10-16T02:31:13;12.90;99.90
17236;DHT22;8734;59.272;17.780;2022-10-16T02:33:44;12.80;99.90
17236;DHT22;8734;59.272;17.780;2022-10-16T02:36:13;12.90;99.90
17236;DHT22;8734;59.272;17.780;2022-10-16T02:38:41;12.80;99.90
17236;DHT22;8734;59.272;17.780;2022-10-16T02:41:10;12.80;99.90
17236;DHT22;8734;59.272;17.780;2022-10-16T02:43:39;12.80;99.90
17236;DHT22;8734;59.272;17.780;2022-10-16T02:46:08;12.80;99.90
17236;DHT22;8734;59.272;17.780;2022-10-16T02:48:36;12.80;99.90
17236;DHT22;8734;59.272;17.780;2022-10-16T02:51:06;12.80;99.90
17236;DHT22;8734;59.272;17.780;2022-10-16T02:53:34;12.80;99.90
17236;DHT22;8734;59.272;17.780;2022-10-16T02:56:03;12.80;99.90
17236;DHT22;8734;59.272;17.780;2022-10-16T02:58:31;12.80;99.90
17236;DHT22;8734;59.272;17.780;2022-10-16T03:01:01;12.80;99.90
17236;DHT22;8734;59.272;17.780;2022-10-16T03:03:30;12.80;99.90
17236;DHT22;8734;59.272;17.780;2022-10-16T03:05:58;12.70;99.90
17236;DHT22;8734;59.272;17.780;2022-10-16T03:08:26;12.70;99.90
17236;DHT22;8734;59.272;17.780;2022-10-16T03:10:55;12.70;99.90
17236;DHT22;8734;59.272;17.780;2022-10-16T03:13:23;12.70;99.90
17236;DHT22;8734;59.272;17.780;2022-10-16T03:15:51;12.70;99.90
17236;DHT22;8734;59.272;17.780;2022-10-16T03:18:21;12.70;99.90
17236;DHT22;8734;59.272;17.780;2022-10-16T03:20:49;12.60;99.90
17236;DHT22;8734;59.272;17.780;2022-10-16T03:23:17;12.60;99.90
17236;DHT22;8734;59.272;17.780;2022-10-16T03:25:46;12.60;99.90
17236;DHT22;8734;59.272;17.780;2022-10-16T03:28:14;12.60;99.90
17236;DHT22;8734;59.272;17.780;2022-10-16T03:30:43;12.50;99.90
17236;DHT22;8734;59.272;17.780;2022-10-16T03:33:12;12.50;99.90
17236;DHT22;8734;59.272;17.780;2022-10-16T03:35:41;12.50;99.90
17236;DHT22;8734;59.272;17.780;2022-10-16T03:38:09;12.40;99.90
17236;DHT22;8734;59.272;17.780;2022-10-16T03:40:38;12.40;99.90
17236;DHT22;8734;59.272;17.780;2022-10-16T03:43:06;12.40;99.90
17236;DHT22;8734;59.272;17.780;2022-10-16T03:45:35;12.50;99.90
17236;DHT22;8734;59.272;17.780;2022-10-16T03:48:03;12.50;99.90
17236;DHT22;8734;59.272;17.780;2022-10-16T03:50:31;12.50;99.90
17236;DHT22;8734;59.272;17.780;2022-10-16T03:53:01;12.50;99.90
17236;DHT22;8734;59.272;17.780;2022-10-16T03:55:30;12.50;99.90
17236;DHT22;8734;59.272;17.780;2022-10-16T03:57:58;12.50;99.90
17236;DHT22;8734;59.272;17.780;2022-10-16T04:00:26;12.50;99.90
17236;DHT22;8734;59.272;17.780;2022-10-16T04:02:55;12.50;99.90
17236;DHT22;8734;59.272;17.780;2022-10-16T04:05:23;12.50;99.90
17236;DHT22;8734;59.272;17.780;2022-10-16T04:07:51;12.40;99.90
17236;DHT22;8734;59.272;17.780;2022-10-16T04:10:21;12.40;99.90
17236;DHT22;8734;59.272;17.780;2022-10-16T04:12:49;12.40;99.90
17236;DHT22;8734;59.272;17.780;2022-10-16T04:15:18;12.40;99.90
17236;DHT22;8734;59.272;17.780;2022-10-16T04:17:46;12.30;99.90
17236;DHT22;8734;59.272;17.780;2022-10-16T04:20:14;12.30;99.90
17236;DHT22;8734;59.272;17.780;2022-10-16T04:22:42;12.30;99.90
17236;DHT22;8734;59.272;17.780;2022-10-16T04:25:11;12.30;99.90
17236;DHT22;8734;59.272;17.780;2022-10-16T04:27:41;12.30;99.90
17236;DHT22;8734;59.272;17.780;2022-10-16T04:30:13;12.20;99.90
17236;DHT22;8734;59.272;17.780;2022-10-16T04:32:41;12.20;99.90
17236;DHT22;8734;59.272;17.780;2022-10-16T04:35:09;12.20;99.90
17236;DHT22;8734;59.272;17.780;2022-10-16T04:37:37;12.20;99.90
17236;DHT22;8734;59.272;17.780;2022-10-16T04:40:07;12.20;99.90
17236;DHT22;8734;59.272;17.780;2022-10-16T04:42:35;12.10;99.90
17236;DHT22;8734;59.272;17.780;2022-10-16T04:45:06;12.10;99.90
17236;DHT22;8734;59.272;17.780;2022-10-16T04:47:40;12.10;99.90
17236;DHT22;8734;59.272;17.780;2022-10-16T04:50:08;12.10;99.90
17236;DHT22;8734;59.272;17.780;2022-10-16T04:52:37;12.00;99.90
17236;DHT22;8734;59.272;17.780;2022-10-16T04:55:06;12.10;99.90
17236;DHT22;8734;59.272;17.780;2022-10-16T04:57:34;12.10;99.90
17236;DHT22;8734;59.272;17.780;2022-10-16T05:00:05;12.10;99.90
17236;DHT22;8734;59.272;17.780;2022-10-16T05:02:34;12.10;99.90
17236;DHT22;8734;59.272;17.780;2022-10-16T05:05:04;12.10;99.90
17236;DHT22;8734;59.272;17.780;2022-10-16T05:07:32;12.10;99.90
17236;DHT22;8734;59.272;17.780;2022-10-16T05:10:00;12.10;99.90
17236;DHT22;8734;59.272;17.780;2022-10-16T05:12:28;12.00;99.90
17236;DHT22;8734;59.272;17.780;2022-10-16T05:14:57;12.00;99.90
17236;DHT22;8734;59.272;17.780;2022-10-16T05:17:27;12.00;99.90
17236;DHT22;8734;59.272;17.780;2022-10-16T05:19:56;12.00;99.90
17236;DHT22;8734;59.272;17.780;2022-10-16T05:22:24;12.00;99.90
17236;DHT22;8734;59.272;17.780;2022-10-16T05:24:52;12.00;99.90
17236;DHT22;8734;59.272;17.780;2022-10-16T05:27:20;12.00;99.90
17236;DHT22;8734;59.272;17.780;2022-10-16T05:29:49;12.10;99.90
17236;DHT22;8734;59.272;17.780;2022-10-16T05:32:18;12.00;99.90
17236;DHT22;8734;59.272;17.780;2022-10-16T05:34:48;12.10;99.90
17236;DHT22;8734;59.272;17.780;2022-10-16T05:37:16;12.10;99.90
17236;DHT22;8734;59.272;17.780;2022-10-16T05:39:44;12.10;99.90
17236;DHT22;8734;59.272;17.780;2022-10-16T05:42:12;12.10;99.90
17236;DHT22;8734;59.272;17.780;2022-10-16T05:44:41;12.10;99.90
17236;DHT22;8734;59.272;17.780;2022-10-16T05:47:09;12.10;99.90
17236;DHT22;8734;59.272;17.780;2022-10-16T05:49:38;12.20;99.90
17236;DHT22;8734;59.272;17.780;2022-10-16T05:52:08;12.20;99.90
17236;DHT22;8734;59.272;17.780;2022-10-16T05:54:36;12.20;99.90
17236;DHT22;8734;59.272;17.780;2022-10-16T05:57:04;12.20;99.90
17236;DHT22;8734;59.272;17.780;2022-10-16T05:59:33;12.30;99.90
17236;DHT22;8734;59.272;17.780;2022-10-16T06:02:02;12.30;99.90
17236;DHT22;8734;59.272;17.780;2022-10-16T06:04:30;12.30;99.90
17236;DHT22;8734;59.272;17.780;2022-10-16T06:06:59;12.30;99.90
17236;DHT22;8734;59.272;17.780;2022-10-16T06:09:29;12.40;99.90
17236;DHT22;8734;59.272;17.780;2022-10-16T06:11:57;12.40;99.90
17236;DHT22;8734;59.272;17.780;2022-10-16T06:14:26;12.40;99.90
17236;DHT22;8734;59.272;17.780;2022-10-16T06:16:54;12.40;99.90
17236;DHT22;8734;59.272;17.780;2022-10-16T06:19:23;12.40;99.90
17236;DHT22;8734;59.272;17.780;2022-10-16T06:21:51;12.50;99.90
17236;DHT22;8734;59.272;17.780;2022-10-16T06:24:19;12.50;99.90
17236;DHT22;8734;59.272;17.780;2022-10-16T06:26:49;12.50;99.90
17236;DHT22;8734;59.272;17.780;2022-10-16T06:29:17;12.60;99.90
17236;DHT22;8734;59.272;17.780;2022-10-16T06:31:45;12.60;99.90
17236;DHT22;8734;59.272;17.780;2022-10-16T06:34:14;12.60;99.90
17236;DHT22;8734;59.272;17.780;2022-10-16T06:36:42;12.70;99.90
17236;DHT22;8734;59.272;17.780;2022-10-16T06:39:10;12.70;99.90
17236;DHT22;8734;59.272;17.780;2022-10-16T06:41:39;12.70;99.90
17236;DHT22;8734;59.272;17.780;2022-10-16T06:44:09;12.80;99.90
17236;DHT22;8734;59.272;17.780;2022-10-16T06:46:37;12.70;99.90
17236;DHT22;8734;59.272;17.780;2022-10-16T06:49:05;12.80;99.90
17236;DHT22;8734;59.272;17.780;2022-10-16T06:51:33;12.80;99.90
17236;DHT22;8734;59.272;17.780;2022-10-16T06:54:08;12.80;99.90
17236;DHT22;8734;59.272;17.780;2022-10-16T06:56:37;12.80;99.90
17236;DHT22;8734;59.272;17.780;2022-10-16T06:59:05;12.80;99.90
17236;DHT22;8734;59.272;17.780;2022-10-16T07:01:35;12.80;99.90
17236;DHT22;8734;59.272;17.780;2022-10-16T07:04:03;12.80;99.90
17236;DHT22;8734;59.272;17.780;2022-10-16T07:06:33;12.80;99.90
17236;DHT22;8734;59.272;17.780;2022-10-16T07:09:04;12.80;99.90
17236;DHT22;8734;59.272;17.780;2022-10-16T07:11:33;12.90;99.90
17236;DHT22;8734;59.272;17.780;2022-10-16T07:14:02;13.00;99.90
17236;DHT22;8734;59.272;17.780;2022-10-16T07:16:31;13.00;99.90
17236;DHT22;8734;59.272;17.780;2022-10-16T07:19:02;13.00;99.90
17236;DHT22;8734;59.272;17.780;2022-10-16T07:21:33;13.00;99.90
17236;DHT22;8734;59.272;17.780;2022-10-16T07:24:05;13.10;99.90
17236;DHT22;8734;59.272;17.780;2022-10-16T07:26:35;13.00;99.90
17236;DHT22;8734;59.272;17.780;2022-10-16T07:29:07;13.00;99.90
17236;DHT22;8734;59.272;17.780;2022-10-16T07:31:36;13.10;99.90
17236;DHT22;8734;59.272;17.780;2022-10-16T07:34:06;13.10;99.90
17236;DHT22;8734;59.272;17.780;2022-10-16T07:36:34;13.00;99.90
17236;DHT22;8734;59.272;17.780;2022-10-16T07:39:03;13.00;99.90
17236;DHT22;8734;59.272;17.780;2022-10-16T07:41:31;13.00;99.90
17236;DHT22;8734;59.272;17.780;2022-10-16T07:44:04;13.00;99.90
17236;DHT22;8734;59.272;17.780;2022-10-16T07:46:33;13.10;99.90
17236;DHT22;8734;59.272;17.780;2022-10-16T07:49:03;13.10;99.90
17236;DHT22;8734;59.272;17.780;2022-10-16T07:51:32;13.10;99.90
17236;DHT22;8734;59.272;17.780;2022-10-16T07:54:01;13.20;99.90
17236;DHT22;8734;59.272;17.780;2022-10-16T07:56:30;13.10;99.90
17236;DHT22;8734;59.272;17.780;2022-10-16T07:58:59;13.20;99.90
17236;DHT22;8734;59.272;17.780;2022-10-16T08:01:27;13.10;99.90
17236;DHT22;8734;59.272;17.780;2022-10-16T08:03:56;13.10;99.90
17236;DHT22;8734;59.272;17.780;2022-10-16T08:06:24;13.10;99.90
17236;DHT22;8734;59.272;17.780;2022-10-16T08:08:55;13.10;99.90
17236;DHT22;8734;59.272;17.780;2022-10-16T08:11:24;13.10;99.90
17236;DHT22;8734;59.272;17.780;2022-10-16T08:13:53;13.10;99.90
17236;DHT22;8734;59.272;17.780;2022-10-16T08:16:21;13.20;99.90
17236;DHT22;8734;59.272;17.780;2022-10-16T08:18:49;13.20;99.90
17236;DHT22;8734;59.272;17.780;2022-10-16T08:21:20;13.20;99.90
17236;DHT22;8734;59.272;17.780;2022-10-16T08:23:49;13.10;99.90
17236;DHT22;8734;59.272;17.780;2022-10-16T08:26:25;13.10;99.90
17236;DHT22;8734;59.272;17.780;2022-10-16T08:28:54;13.20;99.90
17236;DHT22;8734;59.272;17.780;2022-10-16T08:31:23;13.20;99.90
17236;DHT22;8734;59.272;17.780;2022-10-16T08:33:53;13.20;99.90
17236;DHT22;8734;59.272;17.780;2022-10-16T08:36:21;13.20;99.90
17236;DHT22;8734;59.272;17.780;2022-10-16T08:38:50;13.30;99.90
17236;DHT22;8734;59.272;17.780;2022-10-16T08:41:39;13.30;99.90
17236;DHT22;8734;59.272;17.780;2022-10-16T08:44:30;13.30;99.90
17236;DHT22;8734;59.272;17.780;2022-10-16T08:47:08;13.40;99.90
17236;DHT22;8734;59.272;17.780;2022-10-16T08:49:42;13.40;99.90
17236;DHT22;8734;59.272;17.780;2022-10-16T08:52:12;13.40;99.90
17236;DHT22;8734;59.272;17.780;2022-10-16T08:54:44;13.30;99.90
17236;DHT22;8734;59.272;17.780;2022-10-16T08:57:19;13.30;99.90
17236;DHT22;8734;59.272;17.780;2022-10-16T08:59:50;13.40;99.90
17236;DHT22;8734;59.272;17.780;2022-10-16T09:02:24;13.40;99.90
17236;DHT22;8734;59.272;17.780;2022-10-16T09:07:55;13.50;99.90
17236;DHT22;8734;59.272;17.780;2022-10-16T09:10:38;13.50;99.90
17236;DHT22;8734;59.272;17.780;2022-10-16T09:13:19;13.50;99.90
17236;DHT22;8734;59.272;17.780;2022-10-16T09:15:54;13.60;99.90
17236;DHT22;8734;59.272;17.780;2022-10-16T09:18:27;13.90;99.90
17236;DHT22;8734;59.272;17.780;2022-10-16T09:21:03;14.60;99.90
17236;DHT22;8734;59.272;17.780;2022-10-16T09:23:34;15.10;99.90
17236;DHT22;8734;59.272;17.780;2022-10-16T09:26:05;15.50;99.90
17236;DHT22;8734;59.272;17.780;2022-10-16T09:28:39;16.20;99.90
17236;DHT22;8734;59.272;17.780;2022-10-16T09:31:13;16.10;99.90
17236;DHT22;8734;59.272;17.780;2022-10-16T09:33:45;15.80;99.90
17236;DHT22;8734;59.272;17.780;2022-10-16T09:36:15;15.40;99.90
17236;DHT22;8734;59.272;17.780;2022-10-16T09:38:43;14.90;99.90
17236;DHT22;8734;59.272;17.780;2022-10-16T09:41:16;14.70;99.90
17236;DHT22;8734;59.272;17.780;2022-10-16T09:43:53;14.70;99.90
17236;DHT22;8734;59.272;17.780;2022-10-16T09:46:26;14.80;99.90
17236;DHT22;8734;59.272;17.780;2022-10-16T09:48:56;15.60;99.90
17236;DHT22;8734;59.272;17.780;2022-10-16T09:51:27;16.60;99.90
17236;DHT22;8734;59.272;17.780;2022-10-16T09:53:57;17.70;99.90
17236;DHT22;8734;59.272;17.780;2022-10-16T09:56:28;18.80;99.90
17236;DHT22;8734;59.272;17.780;2022-10-16T09:58:59;19.50;99.90
17236;DHT22;8734;59.272;17.780;2022-10-16T10:01:31;19.70;99.90
17236;DHT22;8734;59.272;17.780;2022-10-16T10:04:03;19.40;99.90
17236;DHT22;8734;59.272;17.780;2022-10-16T10:06:34;19.30;99.90
17236;DHT22;8734;59.272;17.780;2022-10-16T10:09:17;19.10;99.90
17236;DHT22;8734;59.272;17.780;2022-10-16T10:11:52;18.60;99.90
17236;DHT22;8734;59.272;17.780;2022-10-16T10:14:27;18.00;99.90
17236;DHT22;8734;59.272;17.780;2022-10-16T10:17:18;17.10;99.90
17236;DHT22;8734;59.272;17.780;2022-10-16T10:19:49;16.80;99.90
17236;DHT22;8734;59.272;17.780;2022-10-16T10:22:40;16.50;99.90
17236;DHT22;8734;59.272;17.780;2022-10-16T10:25:41;16.10;99.90
17236;DHT22;8734;59.272;17.780;2022-10-16T10:28:30;15.80;99.90
17236;DHT22;8734;59.272;17.780;2022-10-16T10:31:11;15.50;99.90
17236;DHT22;8734;59.272;17.780;2022-10-16T10:33:44;15.10;99.90
17236;DHT22;8734;59.272;17.780;2022-10-16T10:36:39;15.10;99.90
17236;DHT22;8734;59.272;17.780;2022-10-16T10:39:13;15.10;99.90
17236;DHT22;8734;59.272;17.780;2022-10-16T10:42:14;15.20;99.90
17236;DHT22;8734;59.272;17.780;2022-10-16T10:45:02;15.30;99.90
17236;DHT22;8734;59.272;17.780;2022-10-16T10:47:42;15.40;99.90
17236;DHT22;8734;59.272;17.780;2022-10-16T10:50:20;15.60;99.90
17236;DHT22;8734;59.272;17.780;2022-10-16T10:52:59;15.60;99.90
17236;DHT22;8734;59.272;17.780;2022-10-16T10:55:38;15.60;99.90
17236;DHT22;8734;59.272;17.780;2022-10-16T10:58:32;15.50;99.90
17236;DHT22;8734;59.272;17.780;2022-10-16T11:01:08;15.40;99.90
17236;DHT22;8734;59.272;17.780;2022-10-16T11:03:53;15.40;99.90
17236;DHT22;8734;59.272;17.780;2022-10-16T11:06:26;15.50;99.90
17236;DHT22;8734;59.272;17.780;2022-10-16T11:09:00;15.40;99.90
17236;DHT22;8734;59.272;17.780;2022-10-16T11:11:33;15.30;99.90
17236;DHT22;8734;59.272;17.780;2022-10-16T11:14:05;15.20;99.90
17236;DHT22;8734;59.272;17.780;2022-10-16T11:16:39;15.10;99.90
17236;DHT22;8734;59.272;17.780;2022-10-16T11:19:19;15.00;99.90
17236;DHT22;8734;59.272;17.780;2022-10-16T11:21:51;15.10;99.90
17236;DHT22;8734;59.272;17.780;2022-10-16T11:24:26;15.00;99.90
17236;DHT22;8734;59.272;17.780;2022-10-16T11:27:04;15.00;99.90
17236;DHT22;8734;59.272;17.780;2022-10-16T11:29:40;14.90;99.90
17236;DHT22;8734;59.272;17.780;2022-10-16T11:32:19;14.90;99.90
17236;DHT22;8734;59.272;17.780;2022-10-16T11:34:52;14.80;99.90
17236;DHT22;8734;59.272;17.780;2022-10-16T11:37:27;14.70;99.90
17236;DHT22;8734;59.272;17.780;2022-10-16T11:40:05;14.70;99.90
17236;DHT22;8734;59.272;17.780;2022-10-16T11:42:44;14.60;99.90
17236;DHT22;8734;59.272;17.780;2022-10-16T11:45:25;14.60;99.90
17236;DHT22;8734;59.272;17.780;2022-10-16T11:48:00;14.50;99.90
17236;DHT22;8734;59.272;17.780;2022-10-16T11:50:35;14.40;99.90
17236;DHT22;8734;59.272;17.780;2022-10-16T11:53:11;14.50;99.90
17236;DHT22;8734;59.272;17.780;2022-10-16T11:55:43;14.80;99.90
17236;DHT22;8734;59.272;17.780;2022-10-16T11:58:20;15.10;99.90
17236;DHT22;8734;59.272;17.780;2022-10-16T12:00:57;15.50;99.90
17236;DHT22;8734;59.272;17.780;2022-10-16T12:03:31;15.60;99.90
17236;DHT22;8734;59.272;17.780;2022-10-16T12:06:28;15.50;99.90
17236;DHT22;8734;59.272;17.780;2022-10-16T12:08:59;15.30;99.90
17236;DHT22;8734;59.272;17.780;2022-10-16T12:11:35;15.10;99.90
17236;DHT22;8734;59.272;17.780;2022-10-16T12:14:18;15.20;99.90
17236;DHT22;8734;59.272;17.780;2022-10-16T12:16:55;15.20;99.90
17236;DHT22;8734;59.272;17.780;2022-10-16T12:19:24;15.30;99.90
17236;DHT22;8734;59.272;17.780;2022-10-16T12:21:56;15.30;99.90
17236;DHT22;8734;59.272;17.780;2022-10-16T12:24:34;15.30;99.90
17236;DHT22;8734;59.272;17.780;2022-10-16T12:27:05;15.40;99.90
17236;DHT22;8734;59.272;17.780;2022-10-16T12:29:38;15.30;99.90
17236;DHT22;8734;59.272;17.780;2022-10-16T12:32:24;15.20;99.90
17236;DHT22;8734;59.272;17.780;2022-10-16T12:35:19;15.00;99.90
17236;DHT22;8734;59.272;17.780;2022-10-16T12:37:50;14.90;99.90
17236;DHT22;8734;59.272;17.780;2022-10-16T12:40:27;14.70;99.90
17236;DHT22;8734;59.272;17.780;2022-10-16T12:42:55;14.70;99.90
17236;DHT22;8734;59.272;17.780;2022-10-16T12:45:29;14.60;99.90
17236;DHT22;8734;59.272;17.780;2022-10-16T12:48:00;14.50;99.90
17236;DHT22;8734;59.272;17.780;2022-10-16T12:50:33;14.50;99.90
17236;DHT22;8734;59.272;17.780;2022-10-16T12:53:17;14.40;99.90
17236;DHT22;8734;59.272;17.780;2022-10-16T12:56:00;14.40;99.90
17236;DHT22;8734;59.272;17.780;2022-10-16T12:58:51;14.40;99.90
17236;DHT22;8734;59.272;17.780;2022-10-16T13:01:37;14.40;99.90
17236;DHT22;8734;59.272;17.780;2022-10-16T13:04:31;14.40;99.90
17236;DHT22;8734;59.272;17.780;2022-10-16T13:07:25;14.50;99.90
17236;DHT22;8734;59.272;17.780;2022-10-16T13:10:06;14.50;99.90
17236;DHT22;8734;59.272;17.780;2022-10-16T13:12:50;14.70;99.90
17236;DHT22;8734;59.272;17.780;2022-10-16T13:15:40;14.80;99.90
17236;DHT22;8734;59.272;17.780;2022-10-16T13:18:16;14.80;99.90
17236;DHT22;8734;59.272;17.780;2022-10-16T13:20:59;14.70;99.90
17236;DHT22;8734;59.272;17.780;2022-10-16T13:23:34;14.70;99.90
17236;DHT22;8734;59.272;17.780;2022-10-16T13:26:16;14.70;99.90
17236;DHT22;8734;59.272;17.780;2022-10-16T13:28:46;14.80;99.90
17236;DHT22;8734;59.272;17.780;2022-10-16T13:31:18;14.80;99.90
17236;DHT22;8734;59.272;17.780;2022-10-16T13:33:48;14.70;99.90
17236;DHT22;8734;59.272;17.780;2022-10-16T13:36:21;14.80;99.90
17236;DHT22;8734;59.272;17.780;2022-10-16T13:39:00;14.80;99.90
17236;DHT22;8734;59.272;17.780;2022-10-16T13:41:30;14.90;99.90
17236;DHT22;8734;59.272;17.780;2022-10-16T13:43:58;14.90;99.90
17236;DHT22;8734;59.272;17.780;2022-10-16T13:46:26;14.90;99.90
17236;DHT22;8734;59.272;17.780;2022-10-16T13:48:57;15.00;99.90
17236;DHT22;8734;59.272;17.780;2022-10-16T13:51:25;15.00;99.90
17236;DHT22;8734;59.272;17.780;2022-10-16T13:53:55;14.90;99.90
17236;DHT22;8734;59.272;17.780;2022-10-16T13:56:27;14.80;99.90
17236;DHT22;8734;59.272;17.780;2022-10-16T13:59:00;14.90;99.90
17236;DHT22;8734;59.272;17.780;2022-10-16T14:01:30;14.90;99.90
17236;DHT22;8734;59.272;17.780;2022-10-16T14:04:02;14.80;99.90
17236;DHT22;8734;59.272;17.780;2022-10-16T14:06:33;14.80;99.90
17236;DHT22;8734;59.272;17.780;2022-10-16T14:09:05;14.60;99.90
17236;DHT22;8734;59.272;17.780;2022-10-16T14:11:37;14.50;99.90
17236;DHT22;8734;59.272;17.780;2022-10-16T14:14:12;14.50;99.90
17236;DHT22;8734;59.272;17.780;2022-10-16T14:16:42;14.40;99.90
17236;DHT22;8734;59.272;17.780;2022-10-16T14:19:18;14.40;99.90
17236;DHT22;8734;59.272;17.780;2022-10-16T14:21:47;14.30;99.90
17236;DHT22;8734;59.272;17.780;2022-10-16T14:24:25;14.20;99.90
17236;DHT22;8734;59.272;17.780;2022-10-16T14:26:55;14.20;99.90
17236;DHT22;8734;59.272;17.780;2022-10-16T14:29:27;14.10;99.90
17236;DHT22;8734;59.272;17.780;2022-10-16T14:31:59;14.10;99.90
17236;DHT22;8734;59.272;17.780;2022-10-16T14:34:30;14.00;99.90
17236;DHT22;8734;59.272;17.780;2022-10-16T14:37:06;14.00;99.90
17236;DHT22;8734;59.272;17.780;2022-10-16T14:39:36;13.90;99.90
17236;DHT22;8734;59.272;17.780;2022-10-16T14:42:05;13.90;99.90
17236;DHT22;8734;59.272;17.780;2022-10-16T14:44:43;13.80;99.90
17236;DHT22;8734;59.272;17.780;2022-10-16T14:47:16;13.90;99.90
17236;DHT22;8734;59.272;17.780;2022-10-16T14:49:49;13.90;99.90
17236;DHT22;8734;59.272;17.780;2022-10-16T14:52:18;13.80;99.90
17236;DHT22;8734;59.272;17.780;2022-10-16T14:54:49;13.80;99.90
17236;DHT22;8734;59.272;17.780;2022-10-16T14:57:18;13.80;99.90
17236;DHT22;8734;59.272;17.780;2022-10-16T14:59:49;13.70;99.90
17236;DHT22;8734;59.272;17.780;2022-10-16T15:02:25;13.70;99.90
17236;DHT22;8734;59.272;17.780;2022-10-16T15:04:55;13.70;99.90
17236;DHT22;8734;59.272;17.780;2022-10-16T15:07:24;13.60;99.90
17236;DHT22;8734;59.272;17.780;2022-10-16T15:09:53;13.50;99.90
17236;DHT22;8734;59.272;17.780;2022-10-16T15:12:21;13.40;99.90
17236;DHT22;8734;59.272;17.780;2022-10-16T15:14:51;12.80;99.90
17236;DHT22;8734;59.272;17.780;2022-10-16T15:17:19;11.80;99.90
17236;DHT22;8734;59.272;17.780;2022-10-16T15:19:48;11.20;99.90
17236;DHT22;8734;59.272;17.780;2022-10-16T15:22:18;10.90;99.90
17236;DHT22;8734;59.272;17.780;2022-10-16T15:24:46;10.70;99.90
17236;DHT22;8734;59.272;17.780;2022-10-16T15:27:15;10.70;99.90
17236;DHT22;8734;59.272;17.780;2022-10-16T15:29:43;10.60;99.90
17236;DHT22;8734;59.272;17.780;2022-10-16T15:32:13;10.50;99.90
17236;DHT22;8734;59.272;17.780;2022-10-16T15:34:42;10.50;99.90
17236;DHT22;8734;59.272;17.780;2022-10-16T15:37:10;10.50;99.90
17236;DHT22;8734;59.272;17.780;2022-10-16T15:39:40;10.40;99.90
17236;DHT22;8734;59.272;17.780;2022-10-16T15:42:08;10.30;99.90
17236;DHT22;8734;59.272;17.780;2022-10-16T15:44:37;10.30;99.90
17236;DHT22;8734;59.272;17.780;2022-10-16T15:47:05;10.20;99.90
17236;DHT22;8734;59.272;17.780;2022-10-16T15:49:34;10.20;99.90
17236;DHT22;8734;59.272;17.780;2022-10-16T15:52:03;10.10;99.90
17236;DHT22;8734;59.272;17.780;2022-10-16T15:54:32;10.20;99.90
17236;DHT22;8734;59.272;17.780;2022-10-16T15:57:00;10.20;99.90
17236;DHT22;8734;59.272;17.780;2022-10-16T15:59:28;10.20;99.90
17236;DHT22;8734;59.272;17.780;2022-10-16T16:01:57;10.20;99.90
17236;DHT22;8734;59.272;17.780;2022-10-16T16:04:25;10.20;99.90